sensor_id;sensor_type;location;lat;lon;timestamp;pressure;altitude;pressure_sealevel;temperature;humidity
30856;BME280;17570;0.000;0.000;2023-04-15T00:02:20;96170.42;;;18.79;41.35
30856;BME280;17570;0.000;0.000;2023-04-15T00:04:47;96170.02;;;18.75;41.46
30856;BME280;17570;0.000;0.000;2023-04-15T00:07:15;96172.02;;;18.73;41.63
30856;BME280;17570;0.000;0.000;2023-04-15T00:09:43;96170.59;;;18.71;41.55
30856;BME280;17570;0.000;0.000;2023-04-15T00:12:11;96165.69;;;18.68;41.60
30856;BME280;17570;0.000;0.000;2023-04-15T00:14:38;96159.18;;;18.64;41.76
30856;BME280;17570;0.000;0.000;2023-04-15T00:17:06;96150.69;;;18.61;41.57
30856;BME280;17570;0.000;0.000;2023-04-15T00:19:33;96154.33;;;18.60;41.47
30856;BME280;17570;0.000;0.000;2023-04-15T00:22:02;96162.79;;;18.56;41.67
30856;BME280;17570;0.000;0.000;2023-04-15T00:24:29;96169.23;;;18.53;41.70
30856;BME280;17570;0.000;0.000;2023-04-15T00:26:58;96168.98;;;18.48;41.76
30856;BME280;17570;0.000;0.000;2023-04-15T00:29:25;96163.53;;;18.50;41.78
30856;BME280;17570;0.000;0.000;2023-04-15T00:31:53;96168.79;;;18.50;41.71
30856;BME280;17570;0.000;0.000;2023-04-15T00:34:21;96173.61;;;18.46;41.57
30856;BME280;17570;0.000;0.000;2023-04-15T00:36:49;96158.85;;;18.45;41.51
30856;BME280;17570;0.000;0.000;2023-04-15T00:39:17;96155.78;;;18.42;41.45
30856;BME280;17570;0.000;0.000;2023-04-15T00:41:46;96167.50;;;18.39;41.44
30856;BME280;17570;0.000;0.000;2023-04-15T00:44:14;96165.89;;;18.38;41.52
30856;BME280;17570;0.000;0.000;2023-04-15T00:46:44;96168.69;;;18.36;41.71
30856;BME280;17570;0.000;0.000;2023-04-15T00:49:13;96176.77;;;18.35;41.96
30856;BME280;17570;0.000;0.000;2023-04-15T00:51:40;96178.58;;;18.34;42.09
30856;BME280;17570;0.000;0.000;2023-04-15T00:54:08;96174.50;;;18.32;42.10
30856;BME280;17570;0.000;0.000;2023-04-15T00:56:36;96173.09;;;18.29;41.94
30856;BME280;17570;0.000;0.000;2023-04-15T00:59:04;96172.45;;;18.27;42.08
30856;BME280;17570;0.000;0.000;2023-04-15T01:01:34;96166.58;;;18.25;42.05
30856;BME280;17570;0.000;0.000;2023-04-15T01:04:01;96172.84;;;18.24;41.90
30856;BME280;17570;0.000;0.000;2023-04-15T01:06:29;96173.22;;;18.21;41.86
30856;BME280;17570;0.000;0.000;2023-04-15T01:08:59;96176.65;;;18.22;41.86
30856;BME280;17570;0.000;0.000;2023-04-15T01:11:27;96183.72;;;18.21;41.78
30856;BME280;17570;0.000;0.000;2023-04-15T01:13:54;96180.85;;;18.16;41.78
30856;BME280;17570;0.000;0.000;2023-04-15T01:16:23;96173.34;;;18.13;41.95
30856;BME280;17570;0.000;0.000;2023-04-15T01:18:51;96180.23;;;18.14;41.94
30856;BME280;17570;0.000;0.000;2023-04-15T01:21:19;96182.02;;;18.14;41.88
30856;BME280;17570;0.000;0.000;2023-04-15T01:23:47;96175.97;;;18.13;41.83
30856;BME280;17570;0.000;0.000;2023-04-15T01:26:15;96176.73;;;18.07;41.93
30856;BME280;17570;0.000;0.000;2023-04-15T01:28:44;96172.65;;;18.04;41.76
30856;BME280;17570;0.000;0.000;2023-04-15T01:31:12;96177.90;;;18.04;41.68
30856;BME280;17570;0.000;0.000;2023-04-15T01:33:41;96174.30;;;18.05;41.70
30856;BME280;17570;0.000;0.000;2023-04-15T01:36:09;96177.29;;;18.02;41.62
30856;BME280;17570;0.000;0.000;2023-04-15T01:38:36;96175.84;;;18.00;41.59
30856;BME280;17570;0.000;0.000;2023-04-15T01:41:04;96185.92;;;17.96;41.54
30856;BME280;17570;0.000;0.000;2023-04-15T01:43:33;96182.66;;;17.94;41.59
30856;BME280;17570;0.000;0.000;2023-04-15T01:46:03;96188.91;;;17.93;41.56
30856;BME280;17570;0.000;0.000;2023-04-15T01:48:31;96189.28;;;17.90;41.79
30856;BME280;17570;0.000;0.000;2023-04-15T01:50:59;96185.23;;;17.88;41.81
30856;BME280;17570;0.000;0.000;2023-04-15T01:53:26;96189.48;;;17.89;41.81
30856;BME280;17570;0.000;0.000;2023-04-15T01:55:54;96193.11;;;17.88;41.74
30856;BME280;17570;0.000;0.000;2023-04-15T01:58:22;96182.80;;;17.86;41.33
30856;BME280;17570;0.000;0.000;2023-04-15T02:00:50;96183.77;;;17.85;41.40
30856;BME280;17570;0.000;0.000;2023-04-15T02:03:18;96180.17;;;17.86;41.37
30856;BME280;17570;0.000;0.000;2023-04-15T02:05:45;96185.59;;;17.84;41.30
30856;BME280;17570;0.000;0.000;2023-04-15T02:08:13;96181.34;;;17.83;41.45
30856;BME280;17570;0.000;0.000;2023-04-15T02:10:40;96188.77;;;17.80;41.36
30856;BME280;17570;0.000;0.000;2023-04-15T02:13:08;96184.98;;;17.82;41.45
30856;BME280;17570;0.000;0.000;2023-04-15T02:15:36;96179.89;;;17.81;41.43
30856;BME280;17570;0.000;0.000;2023-04-15T02:18:03;96177.47;;;17.79;41.44
30856;BME280;17570;0.000;0.000;2023-04-15T02:20:31;96172.22;;;17.79;41.63
30856;BME280;17570;0.000;0.000;2023-04-15T02:22:58;96172.58;;;17.76;41.57
30856;BME280;17570;0.000;0.000;2023-04-15T02:25:27;96174.59;;;17.74;41.58
30856;BME280;17570;0.000;0.000;2023-04-15T02:27:56;96181.45;;;17.75;41.49
30856;BME280;17570;0.000;0.000;2023-04-15T02:30:23;96201.84;;;17.73;41.64
30856;BME280;17570;0.000;0.000;2023-04-15T02:32:51;96209.72;;;17.73;41.72
30856;BME280;17570;0.000;0.000;2023-04-15T02:35:19;96224.62;;;17.73;41.51
30856;BME280;17570;0.000;0.000;2023-04-15T02:37:46;96223.66;;;17.74;41.40
30856;BME280;17570;0.000;0.000;2023-04-15T02:40:14;96221.19;;;17.72;41.28
30856;BME280;17570;0.000;0.000;2023-04-15T02:42:42;96235.67;;;17.68;41.30
30856;BME280;17570;0.000;0.000;2023-04-15T02:45:11;96238.66;;;17.65;41.41
30856;BME280;17570;0.000;0.000;2023-04-15T02:47:40;96232.95;;;17.62;41.41
30856;BME280;17570;0.000;0.000;2023-04-15T02:50:09;96241.83;;;17.60;41.59
30856;BME280;17570;0.000;0.000;2023-04-15T02:52:39;96258.13;;;17.56;41.18
30856;BME280;17570;0.000;0.000;2023-04-15T02:55:07;96259.41;;;17.45;40.89
30856;BME280;17570;0.000;0.000;2023-04-15T02:57:36;96248.46;;;17.42;40.87
30856;BME280;17570;0.000;0.000;2023-04-15T03:00:06;96254.88;;;17.39;40.88
30856;BME280;17570;0.000;0.000;2023-04-15T03:02:36;96245.50;;;17.30;40.65
30856;BME280;17570;0.000;0.000;2023-04-15T03:05:04;96246.58;;;17.21;40.74
30856;BME280;17570;0.000;0.000;2023-04-15T03:07:32;96257.70;;;17.23;40.82
30856;BME280;17570;0.000;0.000;2023-04-15T03:10:01;96249.37;;;17.19;40.74
30856;BME280;17570;0.000;0.000;2023-04-15T03:12:29;96250.91;;;17.14;40.87
30856;BME280;17570;0.000;0.000;2023-04-15T03:14:56;96251.91;;;17.13;40.97
30856;BME280;17570;0.000;0.000;2023-04-15T03:17:27;96258.31;;;17.10;41.17
30856;BME280;17570;0.000;0.000;2023-04-15T03:19:55;96263.75;;;17.08;41.41
30856;BME280;17570;0.000;0.000;2023-04-15T03:22:22;96261.13;;;17.08;41.33
30856;BME280;17570;0.000;0.000;2023-04-15T03:24:52;96262.12;;;17.07;41.47
30856;BME280;17570;0.000;0.000;2023-04-15T03:27:20;96266.72;;;17.05;41.57
30856;BME280;17570;0.000;0.000;2023-04-15T03:29:47;96259.85;;;17.04;41.54
30856;BME280;17570;0.000;0.000;2023-04-15T03:32:15;96261.48;;;17.05;41.73
30856;BME280;17570;0.000;0.000;2023-04-15T03:34:43;96251.36;;;17.02;41.84
30856;BME280;17570;0.000;0.000;2023-04-15T03:37:10;96247.91;;;17.02;42.02
30856;BME280;17570;0.000;0.000;2023-04-15T03:39:38;96253.07;;;17.10;41.86
30856;BME280;17570;0.000;0.000;2023-04-15T03:42:05;96263.09;;;17.06;41.77
30856;BME280;17570;0.000;0.000;2023-04-15T03:44:32;96265.72;;;17.06;41.74
30856;BME280;17570;0.000;0.000;2023-04-15T03:47:00;96266.72;;;17.05;41.61
30856;BME280;17570;0.000;0.000;2023-04-15T03:49:27;96266.45;;;17.00;41.47
30856;BME280;17570;0.000;0.000;2023-04-15T03:51:55;96268.26;;;17.00;41.48
30856;BME280;17570;0.000;0.000;2023-04-15T03:54:22;96277.94;;;16.99;41.45
30856;BME280;17570;0.000;0.000;2023-04-15T03:56:50;96281.91;;;16.95;41.41
30856;BME280;17570;0.000;0.000;2023-04-15T03:59:17;96286.33;;;16.95;41.31
30856;BME280;17570;0.000;0.000;2023-04-15T04:01:45;96294.20;;;16.95;41.19
30856;BME280;17570;0.000;0.000;2023-04-15T04:04:12;96296.54;;;16.90;40.90
30856;BME280;17570;0.000;0.000;2023-04-15T04:06:40;96306.09;;;16.82;40.73
30856;BME280;17570;0.000;0.000;2023-04-15T04:09:07;96293.70;;;16.76;40.52
30856;BME280;17570;0.000;0.000;2023-04-15T04:11:35;96301.09;;;16.73;40.56
30856;BME280;17570;0.000;0.000;2023-04-15T04:14:02;96305.69;;;16.71;40.61
30856;BME280;17570;0.000;0.000;2023-04-15T04:16:30;96305.21;;;16.67;40.72
30856;BME280;17570;0.000;0.000;2023-04-15T04:18:59;96310.98;;;16.63;40.69
30856;BME280;17570;0.000;0.000;2023-04-15T04:21:27;96313.94;;;16.59;40.67
30856;BME280;17570;0.000;0.000;2023-04-15T04:23:54;96317.74;;;16.57;40.78
30856;BME280;17570;0.000;0.000;2023-04-15T04:26:22;96316.94;;;16.56;40.83
30856;BME280;17570;0.000;0.000;2023-04-15T04:28:49;96326.60;;;16.56;40.94
30856;BME280;17570;0.000;0.000;2023-04-15T04:31:17;96331.37;;;16.52;40.82
30856;BME280;17570;0.000;0.000;2023-04-15T04:33:47;96333.80;;;16.54;40.87
30856;BME280;17570;0.000;0.000;2023-04-15T04:36:14;96337.60;;;16.51;40.98
30856;BME280;17570;0.000;0.000;2023-04-15T04:38:41;96344.65;;;16.51;40.84
30856;BME280;17570;0.000;0.000;2023-04-15T04:41:09;96352.51;;;16.51;40.80
30856;BME280;17570;0.000;0.000;2023-04-15T04:43:36;96352.19;;;16.46;40.82
30856;BME280;17570;0.000;0.000;2023-04-15T04:46:04;96358.42;;;16.45;40.80
30856;BME280;17570;0.000;0.000;2023-04-15T04:48:31;96361.22;;;16.43;40.59
30856;BME280;17570;0.000;0.000;2023-04-15T04:50:59;96365.80;;;16.41;40.62
30856;BME280;17570;0.000;0.000;2023-04-15T04:53:26;96368.79;;;16.38;40.64
30856;BME280;17570;0.000;0.000;2023-04-15T04:55:54;96368.94;;;16.37;40.68
30856;BME280;17570;0.000;0.000;2023-04-15T04:58:21;96367.02;;;16.30;40.66
30856;BME280;17570;0.000;0.000;2023-04-15T05:00:49;96377.02;;;16.27;40.72
30856;BME280;17570;0.000;0.000;2023-04-15T05:03:19;96383.91;;;16.28;40.86
30856;BME280;17570;0.000;0.000;2023-04-15T05:05:46;96379.64;;;16.27;40.92
30856;BME280;17570;0.000;0.000;2023-04-15T05:08:14;96376.05;;;16.28;41.21
30856;BME280;17570;0.000;0.000;2023-04-15T05:10:42;96375.53;;;16.32;41.39
30856;BME280;17570;0.000;0.000;2023-04-15T05:13:11;96378.27;;;16.39;41.52
30856;BME280;17570;0.000;0.000;2023-04-15T05:15:39;96369.89;;;16.44;42.04
30856;BME280;17570;0.000;0.000;2023-04-15T05:18:08;96372.99;;;16.47;42.31
30856;BME280;17570;0.000;0.000;2023-04-15T05:20:35;96370.66;;;16.52;42.52
30856;BME280;17570;0.000;0.000;2023-04-15T05:23:04;96372.58;;;16.58;42.97
30856;BME280;17570;0.000;0.000;2023-04-15T05:25:32;96376.20;;;16.57;43.00
30856;BME280;17570;0.000;0.000;2023-04-15T05:27:59;96373.69;;;16.64;43.05
30856;BME280;17570;0.000;0.000;2023-04-15T05:30:27;96372.52;;;16.75;43.02
30856;BME280;17570;0.000;0.000;2023-04-15T05:32:54;96385.53;;;16.83;42.92
30856;BME280;17570;0.000;0.000;2023-04-15T05:35:22;96384.48;;;16.92;42.92
30856;BME280;17570;0.000;0.000;2023-04-15T05:37:49;96381.47;;;17.03;42.80
30856;BME280;17570;0.000;0.000;2023-04-15T05:40:16;96380.56;;;17.11;42.54
30856;BME280;17570;0.000;0.000;2023-04-15T05:42:45;96379.87;;;17.17;42.60
30856;BME280;17570;0.000;0.000;2023-04-15T05:45:12;96384.05;;;17.26;42.54
30856;BME280;17570;0.000;0.000;2023-04-15T05:47:40;96382.33;;;17.33;42.64
30856;BME280;17570;0.000;0.000;2023-04-15T05:50:08;96384.89;;;17.42;42.49
30856;BME280;17570;0.000;0.000;2023-04-15T05:52:35;96383.81;;;17.51;42.61
30856;BME280;17570;0.000;0.000;2023-04-15T05:55:03;96387.71;;;17.55;42.77
30856;BME280;17570;0.000;0.000;2023-04-15T05:57:30;96383.36;;;17.62;42.64
30856;BME280;17570;0.000;0.000;2023-04-15T05:59:57;96381.66;;;17.69;42.56
30856;BME280;17570;0.000;0.000;2023-04-15T06:02:25;96386.55;;;17.72;42.16
30856;BME280;17570;0.000;0.000;2023-04-15T06:04:53;96393.19;;;17.83;41.70
30856;BME280;17570;0.000;0.000;2023-04-15T06:07:20;96397.34;;;17.92;41.84
30856;BME280;17570;0.000;0.000;2023-04-15T06:09:48;96390.28;;;17.93;41.85
30856;BME280;17570;0.000;0.000;2023-04-15T06:12:16;96392.27;;;18.05;41.71
30856;BME280;17570;0.000;0.000;2023-04-15T06:14:44;96389.36;;;18.15;41.48
30856;BME280;17570;0.000;0.000;2023-04-15T06:17:11;96391.70;;;18.25;41.45
30856;BME280;17570;0.000;0.000;2023-04-15T06:19:40;96393.28;;;18.41;41.12
30856;BME280;17570;0.000;0.000;2023-04-15T06:22:07;96396.63;;;18.49;40.15
30856;BME280;17570;0.000;0.000;2023-04-15T06:24:35;96394.08;;;18.56;39.93
30856;BME280;17570;0.000;0.000;2023-04-15T06:27:02;96386.88;;;18.65;40.09
30856;BME280;17570;0.000;0.000;2023-04-15T06:29:30;96397.50;;;18.71;40.31
30856;BME280;17570;0.000;0.000;2023-04-15T06:31:57;96385.66;;;18.82;39.43
30856;BME280;17570;0.000;0.000;2023-04-15T06:34:25;96393.44;;;18.90;39.21
30856;BME280;17570;0.000;0.000;2023-04-15T06:36:52;96388.79;;;18.92;39.02
30856;BME280;17570;0.000;0.000;2023-04-15T06:39:20;96396.11;;;18.97;38.85
30856;BME280;17570;0.000;0.000;2023-04-15T06:41:47;96394.73;;;19.01;38.38
30856;BME280;17570;0.000;0.000;2023-04-15T06:44:15;96396.68;;;19.14;38.34
30856;BME280;17570;0.000;0.000;2023-04-15T06:46:42;96394.73;;;19.22;38.64
30856;BME280;17570;0.000;0.000;2023-04-15T06:49:10;96401.89;;;19.35;38.02
30856;BME280;17570;0.000;0.000;2023-04-15T06:51:38;96397.52;;;19.42;37.69
30856;BME280;17570;0.000;0.000;2023-04-15T06:54:05;96401.59;;;19.45;37.41
30856;BME280;17570;0.000;0.000;2023-04-15T06:56:33;96400.85;;;19.57;37.17
30856;BME280;17570;0.000;0.000;2023-04-15T06:59:00;96402.56;;;19.65;36.79
30856;BME280;17570;0.000;0.000;2023-04-15T07:01:27;96396.75;;;19.76;36.10
30856;BME280;17570;0.000;0.000;2023-04-15T07:03:55;96398.80;;;19.81;36.23
30856;BME280;17570;0.000;0.000;2023-04-15T07:06:23;96389.14;;;19.88;36.83
30856;BME280;17570;0.000;0.000;2023-04-15T07:08:51;96396.05;;;19.96;36.68
30856;BME280;17570;0.000;0.000;2023-04-15T07:11:19;96388.80;;;20.04;35.63
30856;BME280;17570;0.000;0.000;2023-04-15T07:13:47;96389.66;;;20.11;34.17
30856;BME280;17570;0.000;0.000;2023-04-15T07:16:15;96393.55;;;20.22;32.81
30856;BME280;17570;0.000;0.000;2023-04-15T07:18:42;96390.53;;;20.25;32.37
30856;BME280;17570;0.000;0.000;2023-04-15T07:21:10;96383.65;;;20.31;32.26
30856;BME280;17570;0.000;0.000;2023-04-15T07:23:38;96394.84;;;20.39;31.98
30856;BME280;17570;0.000;0.000;2023-04-15T07:26:05;96385.56;;;20.50;31.28
30856;BME280;17570;0.000;0.000;2023-04-15T07:28:33;96391.27;;;20.60;31.34
30856;BME280;17570;0.000;0.000;2023-04-15T07:31:00;96399.22;;;20.74;30.52
30856;BME280;17570;0.000;0.000;2023-04-15T07:33:28;96390.73;;;20.85;30.71
30856;BME280;17570;0.000;0.000;2023-04-15T07:35:55;96406.77;;;20.97;29.77
30856;BME280;17570;0.000;0.000;2023-04-15T07:38:23;96402.32;;;21.10;29.01
30856;BME280;17570;0.000;0.000;2023-04-15T07:40:51;96398.47;;;21.20;28.40
30856;BME280;17570;0.000;0.000;2023-04-15T07:43:18;96409.06;;;21.33;28.73
30856;BME280;17570;0.000;0.000;2023-04-15T07:45:46;96400.33;;;21.39;27.44
30856;BME280;17570;0.000;0.000;2023-04-15T07:48:14;96400.52;;;21.57;27.75
30856;BME280;17570;0.000;0.000;2023-04-15T07:50:42;96400.48;;;21.77;27.80
30856;BME280;17570;0.000;0.000;2023-04-15T07:53:09;96404.95;;;21.77;27.62
30856;BME280;17570;0.000;0.000;2023-04-15T07:55:37;96408.63;;;21.82;28.39
30856;BME280;17570;0.000;0.000;2023-04-15T07:58:04;96394.15;;;21.91;27.22
30856;BME280;17570;0.000;0.000;2023-04-15T08:00:31;96389.08;;;21.97;26.96
30856;BME280;17570;0.000;0.000;2023-04-15T08:02:59;96393.12;;;22.06;26.87
30856;BME280;17570;0.000;0.000;2023-04-15T08:05:27;96391.06;;;22.14;26.83
30856;BME280;17570;0.000;0.000;2023-04-15T08:07:54;96388.19;;;22.23;26.95
30856;BME280;17570;0.000;0.000;2023-04-15T08:10:22;96384.91;;;22.34;26.25
30856;BME280;17570;0.000;0.000;2023-04-15T08:12:50;96382.23;;;22.40;26.42
30856;BME280;17570;0.000;0.000;2023-04-15T08:15:19;96381.18;;;22.48;26.61
30856;BME280;17570;0.000;0.000;2023-04-15T08:17:47;96387.23;;;22.55;26.70
30856;BME280;17570;0.000;0.000;2023-04-15T08:20:15;96386.19;;;22.63;26.26
30856;BME280;17570;0.000;0.000;2023-04-15T08:22:44;96389.40;;;22.72;27.07
30856;BME280;17570;0.000;0.000;2023-04-15T08:25:13;96386.48;;;22.80;26.41
30856;BME280;17570;0.000;0.000;2023-04-15T08:27:40;96386.45;;;22.86;27.16
30856;BME280;17570;0.000;0.000;2023-04-15T08:30:08;96378.72;;;22.91;26.71
30856;BME280;17570;0.000;0.000;2023-04-15T08:32:36;96377.84;;;22.98;26.49
30856;BME280;17570;0.000;0.000;2023-04-15T08:35:03;96378.82;;;23.03;26.61
30856;BME280;17570;0.000;0.000;2023-04-15T08:37:31;96375.11;;;23.11;26.67
30856;BME280;17570;0.000;0.000;2023-04-15T08:39:58;96375.27;;;23.16;26.27
30856;BME280;17570;0.000;0.000;2023-04-15T08:42:27;96376.05;;;23.23;26.59
30856;BME280;17570;0.000;0.000;2023-04-15T08:44:55;96373.94;;;23.32;26.81
30856;BME280;17570;0.000;0.000;2023-04-15T08:47:22;96373.71;;;23.33;26.79
30856;BME280;17570;0.000;0.000;2023-04-15T08:49:51;96368.57;;;23.38;26.11
30856;BME280;17570;0.000;0.000;2023-04-15T08:52:20;96363.85;;;23.40;25.56
30856;BME280;17570;0.000;0.000;2023-04-15T08:54:48;96368.34;;;23.40;25.66
30856;BME280;17570;0.000;0.000;2023-04-15T08:57:15;96367.11;;;23.42;25.98
30856;BME280;17570;0.000;0.000;2023-04-15T08:59:43;96362.62;;;23.43;25.43
30856;BME280;17570;0.000;0.000;2023-04-15T09:02:10;96358.52;;;23.47;24.87
30856;BME280;17570;0.000;0.000;2023-04-15T09:04:38;96361.89;;;23.54;24.89
30856;BME280;17570;0.000;0.000;2023-04-15T09:07:05;96364.27;;;23.62;25.21
30856;BME280;17570;0.000;0.000;2023-04-15T09:09:33;96366.25;;;23.74;25.68
30856;BME280;17570;0.000;0.000;2023-04-15T09:12:02;96363.66;;;23.85;25.85
30856;BME280;17570;0.000;0.000;2023-04-15T09:14:29;96366.23;;;23.92;25.74
30856;BME280;17570;0.000;0.000;2023-04-15T09:16:58;96364.91;;;24.01;25.58
30856;BME280;17570;0.000;0.000;2023-04-15T09:19:26;96364.04;;;24.07;25.26
30856;BME280;17570;0.000;0.000;2023-04-15T09:21:54;96357.84;;;24.13;25.32
30856;BME280;17570;0.000;0.000;2023-04-15T09:24:27;96354.28;;;24.19;25.16
30856;BME280;17570;0.000;0.000;2023-04-15T09:26:54;96363.42;;;24.24;25.27
30856;BME280;17570;0.000;0.000;2023-04-15T09:29:23;96362.08;;;24.33;25.04
30856;BME280;17570;0.000;0.000;2023-04-15T09:31:53;96347.74;;;24.40;26.06
30856;BME280;17570;0.000;0.000;2023-04-15T09:34:21;96350.89;;;24.49;26.07
30856;BME280;17570;0.000;0.000;2023-04-15T09:39:19;96350.61;;;24.69;26.24
30856;BME280;17570;0.000;0.000;2023-04-15T09:42:03;96359.43;;;24.81;26.75
30856;BME280;17570;0.000;0.000;2023-04-15T09:44:22;96350.44;;;24.94;27.17
30856;BME280;17570;0.000;0.000;2023-04-15T09:46:50;96349.67;;;25.05;27.22
30856;BME280;17570;0.000;0.000;2023-04-15T09:49:18;96350.18;;;25.14;26.79
30856;BME280;17570;0.000;0.000;2023-04-15T09:51:46;96347.88;;;25.29;26.56
30856;BME280;17570;0.000;0.000;2023-04-15T09:54:18;96344.20;;;25.42;26.63
30856;BME280;17570;0.000;0.000;2023-04-15T09:56:46;96344.42;;;25.52;25.94
30856;BME280;17570;0.000;0.000;2023-04-15T09:59:14;96351.00;;;25.61;27.04
30856;BME280;17570;0.000;0.000;2023-04-15T10:01:41;96346.95;;;25.70;25.61
30856;BME280;17570;0.000;0.000;2023-04-15T10:04:09;96348.81;;;25.82;25.72
30856;BME280;17570;0.000;0.000;2023-04-15T10:06:37;96342.89;;;25.91;26.33
30856;BME280;17570;0.000;0.000;2023-04-15T10:09:06;96343.00;;;25.97;25.38
30856;BME280;17570;0.000;0.000;2023-04-15T10:11:34;96344.39;;;25.99;25.22
30856;BME280;17570;0.000;0.000;2023-04-15T10:14:02;96341.03;;;26.04;25.20
30856;BME280;17570;0.000;0.000;2023-04-15T10:16:30;96346.70;;;26.07;25.13
30856;BME280;17570;0.000;0.000;2023-04-15T10:19:00;96347.84;;;26.11;25.57
30856;BME280;17570;0.000;0.000;2023-04-15T10:21:29;96347.36;;;26.14;23.60
30856;BME280;17570;0.000;0.000;2023-04-15T10:23:57;96353.27;;;26.16;23.61
30856;BME280;17570;0.000;0.000;2023-04-15T10:26:25;96348.50;;;26.18;23.82
30856;BME280;17570;0.000;0.000;2023-04-15T10:28:52;96344.33;;;26.23;23.74
30856;BME280;17570;0.000;0.000;2023-04-15T10:31:20;96349.50;;;26.29;24.23
30856;BME280;17570;0.000;0.000;2023-04-15T10:33:49;96342.08;;;26.43;24.36
30856;BME280;17570;0.000;0.000;2023-04-15T10:36:17;96337.62;;;26.60;24.56
30856;BME280;17570;0.000;0.000;2023-04-15T10:38:45;96337.41;;;26.79;24.44
30856;BME280;17570;0.000;0.000;2023-04-15T10:41:23;96333.72;;;26.96;24.68
30856;BME280;17570;0.000;0.000;2023-04-15T10:43:52;96332.64;;;27.09;24.77
30856;BME280;17570;0.000;0.000;2023-04-15T10:46:40;96329.88;;;27.21;25.14
30856;BME280;17570;0.000;0.000;2023-04-15T10:48:52;96325.28;;;27.33;24.48
30856;BME280;17570;0.000;0.000;2023-04-15T10:51:27;96330.17;;;27.41;24.53
30856;BME280;17570;0.000;0.000;2023-04-15T10:53:58;96322.58;;;27.50;24.15
30856;BME280;17570;0.000;0.000;2023-04-15T10:56:29;96327.17;;;27.55;24.12
30856;BME280;17570;0.000;0.000;2023-04-15T10:59:00;96320.14;;;27.65;24.37
30856;BME280;17570;0.000;0.000;2023-04-15T11:04:13;96311.11;;;27.88;24.06
30856;BME280;17570;0.000;0.000;2023-04-15T11:06:43;96313.87;;;27.93;23.97
30856;BME280;17570;0.000;0.000;2023-04-15T11:09:29;96309.19;;;28.06;23.86
30856;BME280;17570;0.000;0.000;2023-04-15T11:14:26;96304.28;;;28.19;24.14
30856;BME280;17570;0.000;0.000;2023-04-15T11:16:53;96305.03;;;28.15;23.00
30856;BME280;17570;0.000;0.000;2023-04-15T11:19:21;96297.66;;;28.22;23.01
30856;BME280;17570;0.000;0.000;2023-04-15T11:21:48;96299.26;;;28.23;21.98
30856;BME280;17570;0.000;0.000;2023-04-15T11:24:25;96306.20;;;28.24;21.12
30856;BME280;17570;0.000;0.000;2023-04-15T11:27:00;96301.66;;;28.25;21.27
30856;BME280;17570;0.000;0.000;2023-04-15T11:29:28;96310.69;;;28.18;21.58
30856;BME280;17570;0.000;0.000;2023-04-15T11:32:07;96317.08;;;28.17;21.22
30856;BME280;17570;0.000;0.000;2023-04-15T11:34:35;96325.09;;;28.17;20.94
30856;BME280;17570;0.000;0.000;2023-04-15T11:37:03;96322.53;;;28.06;21.15
30856;BME280;17570;0.000;0.000;2023-04-15T11:39:31;96317.72;;;28.03;21.14
30856;BME280;17570;0.000;0.000;2023-04-15T11:41:59;96324.45;;;28.10;21.28
30856;BME280;17570;0.000;0.000;2023-04-15T11:44:26;96315.81;;;28.25;21.72
30856;BME280;17570;0.000;0.000;2023-04-15T11:46:55;96316.31;;;28.44;22.15
30856;BME280;17570;0.000;0.000;2023-04-15T11:49:29;96314.36;;;28.61;22.28
30856;BME280;17570;0.000;0.000;2023-04-15T11:51:57;96311.23;;;28.69;22.44
30856;BME280;17570;0.000;0.000;2023-04-15T11:54:31;96315.91;;;28.84;22.25
30856;BME280;17570;0.000;0.000;2023-04-15T11:56:59;96310.79;;;28.78;21.44
30856;BME280;17570;0.000;0.000;2023-04-15T11:59:40;96310.53;;;28.79;20.66
30856;BME280;17570;0.000;0.000;2023-04-15T12:01:56;96313.42;;;28.72;20.74
30856;BME280;17570;0.000;0.000;2023-04-15T12:04:23;96311.20;;;28.64;21.09
30856;BME280;17570;0.000;0.000;2023-04-15T12:06:53;96311.69;;;28.61;20.76
30856;BME280;17570;0.000;0.000;2023-04-15T12:09:20;96310.58;;;28.57;20.99
30856;BME280;17570;0.000;0.000;2023-04-15T12:11:48;96303.68;;;28.61;21.81
30856;BME280;17570;0.000;0.000;2023-04-15T12:16:50;96301.30;;;28.92;22.10
30856;BME280;17570;0.000;0.000;2023-04-15T12:19:23;96295.55;;;29.05;22.47
30856;BME280;17570;0.000;0.000;2023-04-15T12:21:52;96297.59;;;29.30;22.53
30856;BME280;17570;0.000;0.000;2023-04-15T12:24:20;96292.18;;;29.57;22.96
30856;BME280;17570;0.000;0.000;2023-04-15T12:26:49;96285.87;;;29.84;22.69
30856;BME280;17570;0.000;0.000;2023-04-15T12:29:18;96290.52;;;30.04;22.56
30856;BME280;17570;0.000;0.000;2023-04-15T12:31:47;96293.55;;;30.22;22.59
30856;BME280;17570;0.000;0.000;2023-04-15T12:34:16;96282.88;;;30.38;22.47
30856;BME280;17570;0.000;0.000;2023-04-15T13:39:15;96296.44;;;25.70;23.44
30856;BME280;17570;0.000;0.000;2023-04-15T13:41:43;96296.66;;;26.78;22.52
30856;BME280;17570;0.000;0.000;2023-04-15T13:44:10;96291.31;;;28.06;21.14
30856;BME280;17570;0.000;0.000;2023-04-15T13:46:39;96299.80;;;28.74;20.77
30856;BME280;17570;0.000;0.000;2023-04-15T13:49:08;96299.53;;;29.03;20.35
30856;BME280;17570;0.000;0.000;2023-04-15T13:51:35;96298.80;;;29.12;19.92
30856;BME280;17570;0.000;0.000;2023-04-15T13:54:03;96299.64;;;29.18;19.90
30856;BME280;17570;0.000;0.000;2023-04-15T13:56:30;96295.42;;;29.27;19.93
30856;BME280;17570;0.000;0.000;2023-04-15T13:58:58;96291.98;;;29.32;20.10
30856;BME280;17570;0.000;0.000;2023-04-15T14:01:27;96291.98;;;29.32;20.20
30856;BME280;17570;0.000;0.000;2023-04-15T14:03:55;96299.20;;;29.31;19.76
30856;BME280;17570;0.000;0.000;2023-04-15T14:06:23;96297.27;;;29.21;19.67
30856;BME280;17570;0.000;0.000;2023-04-15T14:08:52;96295.86;;;29.14;19.85
30856;BME280;17570;0.000;0.000;2023-04-15T14:11:20;96298.77;;;29.07;20.21
30856;BME280;17570;0.000;0.000;2023-04-15T14:13:50;96298.84;;;29.17;20.13
30856;BME280;17570;0.000;0.000;2023-04-15T14:16:17;96302.91;;;29.25;19.91
30856;BME280;17570;0.000;0.000;2023-04-15T14:18:44;96297.59;;;29.30;20.01
30856;BME280;17570;0.000;0.000;2023-04-15T14:21:12;96307.78;;;29.33;19.65
30856;BME280;17570;0.000;0.000;2023-04-15T14:23:39;96315.50;;;29.30;20.27
30856;BME280;17570;0.000;0.000;2023-04-15T14:26:07;96308.48;;;29.23;19.43
30856;BME280;17570;0.000;0.000;2023-04-15T14:28:34;96304.68;;;29.14;19.58